Time;durP1;ratioP1;P1;durP2;ratioP2;P2;SDS_P1;SDS_P2;PMS_P1;PMS_P2;Temp;Humidity;BMP_temperature;BMP_pressure;BME280_temperature;BME280_humidity;BME280_pressure;Samples;Min_cycle;Max_cycle;Signal;HPM_P1;HPM_P2
2021/12/06 00:01:06;;;;;;;2.92;2.70;;;16.10;29.90;;;;;;5116039;28;20305;-67
2021/12/06 00:03:40;;;;;;;3.25;2.95;;;16.10;29.90;;;;;;5116889;28;20212;-68
2021/12/06 00:06:08;;;;;;;3.10;2.70;;;16.10;29.90;;;;;;5113524;28;20234;-68
2021/12/06 00:08:37;;;;;;;3.17;2.88;;;16.10;29.90;;;;;;5101992;28;20203;-68
2021/12/06 00:11:08;;;;;;;2.67;2.47;;;16.10;29.90;;;;;;5116435;28;20215;-68
2021/12/06 00:13:36;;;;;;;3.05;2.72;;;16.10;29.90;;;;;;5116265;28;20295;-68
2021/12/06 00:16:08;;;;;;;3.33;2.88;;;16.10;29.80;;;;;;5090381;28;20249;-68
2021/12/06 00:18:36;;;;;;;3.00;2.78;;;16.10;29.90;;;;;;5091575;28;20207;-68
2021/12/06 00:21:04;;;;;;;3.40;3.10;;;16.10;29.90;;;;;;5095842;28;20211;-68
2021/12/06 00:23:31;;;;;;;3.50;3.17;;;16.10;29.90;;;;;;5095880;28;20200;-67
2021/12/06 00:26:00;;;;;;;3.13;2.83;;;16.10;29.90;;;;;;5095780;28;20215;-67
2021/12/06 00:28:28;;;;;;;3.30;3.00;;;16.10;29.90;;;;;;5096083;28;20233;-68
2021/12/06 00:30:56;;;;;;;3.22;2.85;;;16.10;29.90;;;;;;5095882;28;20211;-68
2021/12/06 00:33:24;;;;;;;3.45;3.15;;;16.10;29.90;;;;;;5095637;28;20219;-68
2021/12/06 00:35:51;;;;;;;3.20;2.95;;;16.10;29.90;;;;;;5112125;28;20236;-69
2021/12/06 00:38:19;;;;;;;3.00;2.60;;;16.10;29.90;;;;;;5116809;28;20211;-68
2021/12/06 00:40:49;;;;;;;3.47;3.17;;;16.10;29.90;;;;;;5118149;28;20203;-68
2021/12/06 00:43:18;;;;;;;3.42;3.13;;;16.00;29.90;;;;;;5100382;28;20188;-68
2021/12/06 00:45:45;;;;;;;3.67;3.38;;;16.10;29.90;;;;;;5101882;28;20233;-67
2021/12/06 00:48:12;;;;;;;3.50;3.20;;;16.10;29.90;;;;;;5101608;28;20215;-68
2021/12/06 00:50:42;;;;;;;3.30;3.00;;;16.10;30.00;;;;;;5101517;28;20204;-68
2021/12/06 00:53:09;;;;;;;3.38;3.08;;;16.00;29.80;;;;;;5100184;28;20224;-68
2021/12/06 00:55:37;;;;;;;3.33;3.03;;;16.00;29.80;;;;;;5105736;28;20195;-68
2021/12/06 00:58:05;;;;;;;4.07;3.50;;;16.00;29.80;;;;;;5121675;28;20218;-68
2021/12/06 01:00:36;;;;;;;3.35;3.05;;;16.00;29.60;;;;;;5121529;28;20209;-67
2021/12/06 01:03:06;;;;;;;3.42;3.13;;;16.00;29.50;;;;;;5121333;28;20226;-67
2021/12/06 01:05:33;;;;;;;3.30;3.00;;;16.00;29.50;;;;;;5121473;28;20291;-68
2021/12/06 01:08:01;;;;;;;3.63;3.33;;;15.90;29.40;;;;;;5120797;28;20347;-68
2021/12/06 01:10:29;;;;;;;4.28;3.50;;;15.90;29.40;;;;;;5120068;28;20216;-68
2021/12/06 01:12:58;;;;;;;3.33;3.03;;;15.90;29.40;;;;;;5121064;28;20230;-68
2021/12/06 01:15:25;;;;;;;3.33;3.03;;;15.90;29.30;;;;;;5121704;28;20203;-68
2021/12/06 01:17:57;;;;;;;3.40;3.10;;;15.90;29.40;;;;;;5121205;28;20202;-68
2021/12/06 01:20:28;;;;;;;4.10;3.58;;;15.90;29.40;;;;;;5121398;28;20586;-68
2021/12/06 01:23:01;;;;;;;3.72;3.42;;;15.80;29.30;;;;;;5121372;28;20210;-68
2021/12/06 01:25:33;;;;;;;3.60;3.30;;;15.80;29.30;;;;;;5121254;28;20203;-69
2021/12/06 01:30:55;;;;;;;3.90;3.42;;;15.80;29.20;;;;;;5120033;28;20248;-68
2021/12/06 01:33:41;;;;;;;3.67;3.38;;;15.80;29.20;;;;;;5120980;28;20287;-68
2021/12/06 01:39:15;;;;;;;3.78;3.47;;;15.70;29.30;;;;;;5103022;28;20202;-68
2021/12/06 01:41:50;;;;;;;3.97;3.60;;;15.70;29.20;;;;;;5100896;28;20296;-68
2021/12/06 01:44:20;;;;;;;3.65;3.35;;;15.70;29.80;;;;;;5100759;28;20200;-68
2021/12/06 01:46:49;;;;;;;3.80;3.50;;;15.70;29.20;;;;;;5100517;28;20204;-68
2021/12/06 01:49:20;;;;;;;3.63;3.33;;;15.70;29.20;;;;;;5100239;28;20203;-68
2021/12/06 01:51:48;;;;;;;3.90;3.60;;;15.70;29.10;;;;;;5100452;28;20208;-68
2021/12/06 01:54:17;;;;;;;3.67;3.38;;;15.60;29.00;;;;;;5099852;28;20234;-68
2021/12/06 01:56:45;;;;;;;4.28;3.22;;;15.60;29.00;;;;;;5100231;28;20203;-68
2021/12/06 01:59:12;;;;;;;3.92;3.53;;;15.60;29.00;;;;;;5100573;28;20214;-68
2021/12/06 02:01:40;;;;;;;3.45;3.15;;;15.60;29.10;;;;;;5100221;28;20203;-68
2021/12/06 02:04:07;;;;;;;4.00;3.70;;;15.60;28.90;;;;;;5099805;28;20552;-68
2021/12/06 02:06:38;;;;;;;3.55;3.25;;;15.60;29.00;;;;;;5105622;28;20214;-68
2021/12/06 02:09:07;;;;;;;3.92;3.63;;;15.60;28.90;;;;;;5120588;28;20203;-68
2021/12/06 02:11:36;;;;;;;3.67;3.38;;;15.60;29.00;;;;;;5120911;28;20456;-68
2021/12/06 02:14:15;;;;;;;3.53;3.22;;;15.60;28.90;;;;;;5120281;28;20235;-68
2021/12/06 02:16:58;;;;;;;3.97;3.67;;;15.60;28.90;;;;;;5120318;28;20234;-68
2021/12/06 02:19:31;;;;;;;3.92;3.40;;;15.50;28.90;;;;;;5120161;28;20225;-68
2021/12/06 02:22:00;;;;;;;3.72;3.42;;;15.50;28.90;;;;;;5120368;28;20203;-68
2021/12/06 02:24:30;;;;;;;3.28;3.08;;;15.50;28.90;;;;;;5120441;28;20207;-67
2021/12/06 02:26:58;;;;;;;4.18;3.85;;;15.50;28.80;;;;;;5120689;28;20203;-68
2021/12/06 02:29:26;;;;;;;4.15;3.15;;;15.50;28.90;;;;;;5119983;28;20202;-68
2021/12/06 02:31:53;;;;;;;3.70;3.40;;;15.50;28.90;;;;;;5114279;28;20203;-68
2021/12/06 02:34:21;;;;;;;3.63;3.33;;;15.40;28.60;;;;;;5099440;28;20637;-68
2021/12/06 02:36:48;;;;;;;3.65;3.35;;;15.40;28.80;;;;;;5099107;28;20205;-68
2021/12/06 02:39:22;;;;;;;4.38;3.97;;;15.40;28.90;;;;;;5099605;28;20214;-68
2021/12/06 02:41:51;;;;;;;3.70;3.40;;;15.40;28.80;;;;;;5098949;28;20296;-67
2021/12/06 02:44:19;;;;;;;3.53;3.22;;;15.40;28.80;;;;;;5105445;28;20222;-67
2021/12/06 02:46:46;;;;;;;3.60;3.30;;;15.40;28.90;;;;;;5119029;28;20609;-67
2021/12/06 02:49:13;;;;;;;3.47;3.17;;;15.40;28.90;;;;;;5119306;28;20203;-68
2021/12/06 02:51:41;;;;;;;3.72;3.42;;;15.40;28.90;;;;;;5119579;28;20203;-68
2021/12/06 02:54:09;;;;;;;3.92;3.63;;;15.40;28.80;;;;;;5119502;28;20249;-67
2021/12/06 02:56:52;;;;;;;3.50;3.20;;;15.40;28.90;;;;;;5119123;28;20250;-68
2021/12/06 02:59:21;;;;;;;3.65;3.35;;;15.40;28.80;;;;;;5104480;28;20572;-68
2021/12/06 03:01:53;;;;;;;3.67;3.38;;;15.30;28.70;;;;;;5113846;28;20200;-67
2021/12/06 03:04:20;;;;;;;3.60;3.30;;;15.30;28.80;;;;;;5118766;28;20230;-67
2021/12/06 03:06:52;;;;;;;3.30;3.00;;;15.30;28.70;;;;;;5118195;28;20210;-67
2021/12/06 03:09:23;;;;;;;3.85;3.55;;;15.30;28.90;;;;;;5118825;28;20668;-68
2021/12/06 03:11:54;;;;;;;3.63;3.33;;;15.30;28.70;;;;;;5118757;28;20233;-68
2021/12/06 03:14:24;;;;;;;3.67;3.38;;;15.30;28.70;;;;;;5118795;28;20496;-67
2021/12/06 03:16:53;;;;;;;3.92;3.63;;;15.20;28.60;;;;;;5118475;28;20203;-67
2021/12/06 03:19:21;;;;;;;3.90;3.60;;;15.20;28.80;;;;;;5118811;28;20581;-67
2021/12/06 03:21:48;;;;;;;3.45;3.17;;;15.20;28.80;;;;;;5104972;28;20235;-67
2021/12/06 03:24:15;;;;;;;3.92;3.63;;;15.20;28.90;;;;;;5115902;28;20207;-68
2021/12/06 03:26:43;;;;;;;3.33;3.03;;;15.20;28.80;;;;;;5105946;28;20199;-67
2021/12/06 03:29:12;;;;;;;3.45;3.15;;;15.20;28.70;;;;;;5097800;28;20203;-67
2021/12/06 03:31:40;;;;;;;3.47;3.28;;;15.10;28.60;;;;;;5097794;28;20219;-67
2021/12/06 03:34:08;;;;;;;4.00;3.60;;;15.10;28.70;;;;;;5097472;28;20227;-68
2021/12/06 03:36:38;;;;;;;3.60;3.30;;;15.10;28.70;;;;;;5097707;28;20230;-67
2021/12/06 03:39:08;;;;;;;3.70;3.40;;;15.10;28.70;;;;;;5097920;28;20207;-68
2021/12/06 03:41:35;;;;;;;3.70;3.40;;;15.10;28.70;;;;;;5097376;28;20222;-68
2021/12/06 03:44:02;;;;;;;3.72;3.42;;;15.10;28.70;;;;;;5097007;28;20211;-68
2021/12/06 03:46:33;;;;;;;3.53;3.22;;;15.10;29.30;;;;;;5097509;28;20203;-67
2021/12/06 03:49:01;;;;;;;3.67;3.38;;;15.00;28.70;;;;;;5097537;28;20625;-67
2021/12/06 03:51:28;;;;;;;3.67;3.38;;;15.00;28.70;;;;;;5097514;28;20298;-67
2021/12/06 03:53:55;;;;;;;4.00;3.70;;;15.00;28.80;;;;;;5087192;28;20251;-67
2021/12/06 03:56:22;;;;;;;3.67;3.38;;;15.00;28.70;;;;;;5117153;28;20213;-68
2021/12/06 03:58:49;;;;;;;3.65;3.35;;;15.00;28.70;;;;;;5117925;28;20209;-67
2021/12/06 04:01:17;;;;;;;3.53;3.22;;;15.00;28.70;;;;;;5118145;28;20222;-67
2021/12/06 04:03:47;;;;;;;3.45;3.25;;;15.00;28.70;;;;;;5117831;28;20601;-67
2021/12/06 04:06:14;;;;;;;3.70;3.40;;;14.90;28.70;;;;;;5118238;28;20525;-68
2021/12/06 04:08:41;;;;;;;3.97;3.67;;;14.90;28.70;;;;;;5117750;28;20210;-67
2021/12/06 04:11:09;;;;;;;3.53;3.22;;;14.90;28.80;;;;;;5117392;28;20207;-67
2021/12/06 04:13:36;;;;;;;3.35;3.05;;;14.90;28.70;;;;;;5117763;28;20635;-67
2021/12/06 04:16:04;;;;;;;3.60;3.30;;;14.90;28.70;;;;;;5117603;28;20207;-68
2021/12/06 04:18:31;;;;;;;3.90;3.60;;;14.90;28.80;;;;;;5117988;28;20474;-67
2021/12/06 04:21:00;;;;;;;3.70;3.40;;;14.90;28.80;;;;;;5111379;28;20204;-68
2021/12/06 04:23:27;;;;;;;3.80;3.50;;;14.90;28.90;;;;;;5089158;28;20199;-67
2021/12/06 04:25:54;;;;;;;3.97;3.67;;;14.80;28.70;;;;;;5097074;28;20505;-68
2021/12/06 04:28:22;;;;;;;3.40;3.10;;;14.80;28.70;;;;;;5097184;28;20208;-67
2021/12/06 04:30:51;;;;;;;3.53;3.20;;;14.80;28.70;;;;;;5093195;28;20609;-67
2021/12/06 04:33:18;;;;;;;3.58;3.28;;;14.80;28.70;;;;;;5097521;28;20503;-67
2021/12/06 04:35:46;;;;;;;3.75;3.45;;;14.80;28.70;;;;;;5097211;28;20222;-67
2021/12/06 04:38:14;;;;;;;3.80;3.50;;;14.80;29.30;;;;;;5096031;28;20215;-67
2021/12/06 04:40:42;;;;;;;3.78;3.47;;;14.80;28.70;;;;;;5096284;28;20216;-67
2021/12/06 04:43:09;;;;;;;3.55;3.25;;;14.80;28.70;;;;;;5096969;28;20207;-68
2021/12/06 04:45:37;;;;;;;3.70;3.40;;;14.80;28.80;;;;;;5097238;28;20272;-67
2021/12/06 04:48:06;;;;;;;3.78;3.47;;;14.80;28.90;;;;;;5096924;28;20485;-67
2021/12/06 04:50:34;;;;;;;3.80;3.50;;;14.70;28.80;;;;;;5094429;28;20204;-67
2021/12/06 04:53:05;;;;;;;3.78;3.47;;;14.70;28.70;;;;;;5110921;28;20203;-67
2021/12/06 04:55:39;;;;;;;3.60;3.30;;;14.70;28.70;;;;;;5116974;28;20203;-67
2021/12/06 04:58:09;;;;;;;3.88;3.58;;;14.70;28.80;;;;;;5116983;28;20202;-67
2021/12/06 05:00:40;;;;;;;3.53;3.22;;;14.70;28.80;;;;;;5116764;28;20241;-67
2021/12/06 05:03:09;;;;;;;3.58;3.28;;;14.70;28.90;;;;;;5116863;28;20261;-67
2021/12/06 05:05:41;;;;;;;3.72;3.42;;;14.70;29.40;;;;;;5116373;28;20231;-67
2021/12/06 05:08:12;;;;;;;3.80;3.50;;;14.60;28.80;;;;;;5116408;28;20574;-67
2021/12/06 05:10:41;;;;;;;3.25;3.03;;;14.60;28.70;;;;;;5116407;28;20203;-67
2021/12/06 05:13:08;;;;;;;3.70;3.40;;;14.60;28.80;;;;;;5116391;28;20459;-67
2021/12/06 05:15:36;;;;;;;3.50;3.20;;;14.60;28.80;;;;;;5116578;28;20195;-67
2021/12/06 05:18:04;;;;;;;3.90;3.60;;;14.60;28.80;;;;;;5113045;28;20721;-67
2021/12/06 05:20:32;;;;;;;3.50;3.20;;;14.60;28.80;;;;;;5095941;28;20214;-67
2021/12/06 05:22:59;;;;;;;3.53;3.22;;;14.50;28.80;;;;;;5096731;28;20520;-67
2021/12/06 05:25:27;;;;;;;3.90;3.60;;;14.50;28.80;;;;;;5096407;28;20227;-67
2021/12/06 05:27:58;;;;;;;4.00;3.70;;;14.50;28.80;;;;;;5096700;28;20230;-67
2021/12/06 05:30:25;;;;;;;3.70;3.40;;;14.50;28.80;;;;;;5097867;28;20208;-67
2021/12/06 05:32:53;;;;;;;3.85;3.45;;;14.50;28.80;;;;;;5099439;28;20315;-67
2021/12/06 05:35:21;;;;;;;4.00;3.60;;;14.50;28.80;;;;;;5099377;28;20226;-68
2021/12/06 05:37:51;;;;;;;3.60;3.30;;;14.50;28.80;;;;;;5098610;28;20204;-67
2021/12/06 05:40:21;;;;;;;3.83;3.42;;;14.50;28.90;;;;;;5099056;28;20204;-67
2021/12/06 05:42:48;;;;;;;3.90;3.55;;;14.50;28.80;;;;;;5098906;28;20195;-67
2021/12/06 05:45:18;;;;;;;3.53;3.22;;;14.40;28.80;;;;;;5098472;28;20203;-67
2021/12/06 05:47:45;;;;;;;3.85;3.55;;;14.50;28.80;;;;;;5092439;28;20507;-67
2021/12/06 05:50:13;;;;;;;3.90;3.60;;;14.40;28.80;;;;;;5098267;28;20215;-67
2021/12/06 05:52:41;;;;;;;3.63;3.33;;;14.40;28.80;;;;;;5098896;28;20207;-67
2021/12/06 05:55:10;;;;;;;3.45;3.15;;;14.40;28.80;;;;;;5097891;28;20235;-67
2021/12/06 05:57:39;;;;;;;3.58;3.28;;;14.40;28.80;;;;;;5098691;28;20230;-67
2021/12/06 06:00:09;;;;;;;4.03;3.45;;;14.40;28.90;;;;;;5098383;28;20210;-67
2021/12/06 06:02:37;;;;;;;4.18;3.78;;;14.40;28.90;;;;;;5097816;28;20562;-67
2021/12/06 06:05:06;;;;;;;4.13;3.72;;;14.40;28.90;;;;;;5096863;28;20243;-67
2021/12/06 06:07:33;;;;;;;4.15;3.72;;;14.40;28.80;;;;;;5096412;28;20628;-67
2021/12/06 06:10:00;;;;;;;3.90;3.60;;;14.40;28.90;;;;;;5096389;28;20298;-67
2021/12/06 06:12:27;;;;;;;4.35;3.47;;;14.30;28.90;;;;;;5095744;28;20222;-67
2021/12/06 06:14:55;;;;;;;3.50;3.20;;;14.30;28.90;;;;;;5096560;28;20220;-67
2021/12/06 06:17:22;;;;;;;4.53;3.50;;;14.30;28.90;;;;;;5096177;28;20196;-67
2021/12/06 06:19:54;;;;;;;3.42;3.13;;;14.30;28.90;;;;;;5096426;28;20486;-67
2021/12/06 06:22:21;;;;;;;3.60;3.30;;;14.30;28.90;;;;;;5096456;28;20203;-67
2021/12/06 06:24:48;;;;;;;4.05;3.58;;;14.30;28.90;;;;;;5096095;28;20195;-67
2021/12/06 06:27:16;;;;;;;4.28;3.60;;;14.30;28.90;;;;;;5095523;28;20214;-67
2021/12/06 06:29:43;;;;;;;3.60;3.20;;;14.20;28.80;;;;;;5095608;28;20204;-67
2021/12/06 06:32:10;;;;;;;4.60;3.65;;;14.20;28.90;;;;;;5096163;28;20207;-67
2021/12/06 06:34:37;;;;;;;3.60;3.30;;;14.20;28.90;;;;;;5095914;28;20627;-67
2021/12/06 06:37:07;;;;;;;3.67;3.38;;;14.20;29.50;;;;;;5096001;28;20207;-67
2021/12/06 06:39:34;;;;;;;4.13;3.72;;;14.20;28.90;;;;;;5111616;28;20199;-67
2021/12/06 06:42:01;;;;;;;3.75;3.35;;;14.20;28.90;;;;;;5115582;28;20203;-67
2021/12/06 06:44:29;;;;;;;4.03;3.63;;;14.20;28.90;;;;;;5115577;28;20672;-67
2021/12/06 06:46:56;;;;;;;3.92;3.63;;;14.20;28.90;;;;;;5115465;28;20202;-67
2021/12/06 06:49:25;;;;;;;3.90;3.50;;;14.10;28.80;;;;;;5115907;28;20195;-67
2021/12/06 06:51:52;;;;;;;4.15;3.75;;;14.20;28.90;;;;;;5115962;28;20210;-67
2021/12/06 06:54:20;;;;;;;4.07;3.38;;;14.20;29.00;;;;;;5115437;28;20559;-67
2021/12/06 06:56:47;;;;;;;3.75;3.38;;;14.10;28.80;;;;;;5114898;28;20207;-67
2021/12/06 06:59:15;;;;;;;4.15;3.60;;;14.10;28.90;;;;;;5115154;28;20227;-67
2021/12/06 07:01:45;;;;;;;3.65;3.35;;;14.10;28.90;;;;;;5115284;28;20202;-67
2021/12/06 07:04:12;;;;;;;3.70;3.40;;;14.10;28.90;;;;;;5114634;28;20213;-67
2021/12/06 07:06:40;;;;;;;3.78;3.38;;;14.10;29.00;;;;;;5098390;28;20210;-67
2021/12/06 07:09:08;;;;;;;3.42;3.13;;;14.10;28.90;;;;;;5094604;28;20211;-67
2021/12/06 07:11:36;;;;;;;4.13;3.58;;;14.10;28.90;;;;;;5094867;28;20214;-67
2021/12/06 07:14:04;;;;;;;4.00;3.55;;;14.10;29.00;;;;;;5094955;28;20223;-67
2021/12/06 07:16:31;;;;;;;3.60;3.30;;;14.10;29.00;;;;;;5095121;28;20204;-67
2021/12/06 07:21:31;;;;;;;3.85;3.00;;;14.00;29.00;;;;;;5053126;28;20294;-65
2021/12/06 07:23:58;;;;;;;3.65;3.35;;;14.00;28.90;;;;;;5050807;28;20208;-65
2021/12/06 07:26:25;;;;;;;3.50;3.20;;;14.00;29.00;;;;;;5053263;28;20215;-65
2021/12/06 07:28:55;;;;;;;3.83;3.22;;;14.00;29.00;;;;;;5054641;28;20619;-67
2021/12/06 07:31:23;;;;;;;3.45;3.13;;;14.00;29.00;;;;;;5052892;28;20646;-68
2021/12/06 07:33:50;;;;;;;3.58;3.28;;;14.00;29.00;;;;;;5051927;28;20197;-67
2021/12/06 07:36:18;;;;;;;4.22;3.40;;;14.00;29.00;;;;;;5052372;28;20212;-67
2021/12/06 07:38:45;;;;;;;3.45;3.15;;;14.00;29.00;;;;;;5052888;28;20217;-67
2021/12/06 07:41:16;;;;;;;3.42;3.13;;;14.00;29.00;;;;;;5052601;28;20220;-67
2021/12/06 07:43:44;;;;;;;3.97;3.58;;;14.00;29.00;;;;;;5051922;28;20201;-67
2021/12/06 07:46:15;;;;;;;4.30;3.42;;;14.00;29.10;;;;;;5054295;28;20201;-67
2021/12/06 07:48:44;;;;;;;3.42;3.13;;;13.90;29.00;;;;;;5054110;28;20271;-67
2021/12/06 07:51:11;;;;;;;3.83;3.42;;;13.90;29.00;;;;;;5052818;28;20262;-67
2021/12/06 07:53:39;;;;;;;3.85;3.55;;;13.90;29.00;;;;;;5051605;28;20197;-67
2021/12/06 07:56:07;;;;;;;3.70;3.40;;;13.90;29.00;;;;;;5052177;28;20260;-67
2021/12/06 07:58:34;;;;;;;4.80;3.70;;;13.90;29.00;;;;;;5052464;28;20216;-67
2021/12/06 08:01:02;;;;;;;3.58;3.28;;;13.90;29.00;;;;;;5052056;28;20756;-67
2021/12/06 08:03:31;;;;;;;3.45;3.15;;;13.90;28.90;;;;;;5051444;28;20267;-67
2021/12/06 08:05:59;;;;;;;3.90;3.58;;;13.90;29.00;;;;;;5050763;28;20193;-67
2021/12/06 08:08:29;;;;;;;3.40;3.03;;;13.80;29.00;;;;;;5052518;28;20536;-67
2021/12/06 08:10:58;;;;;;;4.60;3.50;;;13.80;29.00;;;;;;5052370;28;20403;-67
2021/12/06 08:13:29;;;;;;;3.47;3.17;;;13.80;29.00;;;;;;5050750;28;20215;-67
2021/12/06 08:15:58;;;;;;;4.22;3.47;;;13.80;29.10;;;;;;5051166;28;20221;-67
2021/12/06 08:18:25;;;;;;;3.78;3.25;;;13.80;29.10;;;;;;5036111;28;20216;-67
2021/12/06 08:20:55;;;;;;;3.97;3.58;;;13.80;29.10;;;;;;5051906;28;20248;-67
2021/12/06 08:23:22;;;;;;;3.78;3.28;;;13.80;29.10;;;;;;5052038;28;20201;-67
2021/12/06 08:25:50;;;;;;;4.18;3.55;;;13.90;29.10;;;;;;5052675;28;20215;-67
2021/12/06 08:28:18;;;;;;;3.78;3.47;;;13.90;29.10;;;;;;5052185;28;20212;-67
2021/12/06 08:30:45;;;;;;;3.92;3.40;;;13.90;29.10;;;;;;5051853;28;20205;-67
2021/12/06 08:33:14;;;;;;;5.57;3.47;;;13.90;29.10;;;;;;5052344;28;20197;-67
2021/12/06 08:35:45;;;;;;;3.85;3.38;;;13.90;29.20;;;;;;5052895;28;20221;-67
2021/12/06 08:38:16;;;;;;;3.83;3.42;;;13.90;29.20;;;;;;5054153;28;20268;-67
2021/12/06 08:40:45;;;;;;;3.88;3.42;;;13.90;29.30;;;;;;5053629;28;20212;-67
2021/12/06 08:43:16;;;;;;;4.00;3.25;;;13.90;29.30;;;;;;5053405;28;20213;-67
2021/12/06 08:45:44;;;;;;;4.55;3.80;;;13.90;29.40;;;;;;5041746;28;20472;-67
2021/12/06 08:48:11;;;;;;;4.82;3.50;;;13.90;29.40;;;;;;5033335;28;20216;-67
2021/12/06 08:50:39;;;;;;;5.43;3.50;;;13.90;29.30;;;;;;5032913;28;20210;-67
2021/12/06 08:53:06;;;;;;;8.35;3.80;;;13.90;29.50;;;;;;5032941;28;20205;-67
2021/12/06 08:55:35;;;;;;;17.08;11.82;;;13.90;30.00;;;;;;5033586;28;20229;-67
2021/12/06 08:58:02;;;;;;;13.43;9.93;;;13.90;30.10;;;;;;5032849;28;20601;-67
2021/12/06 09:00:33;;;;;;;10.20;7.97;;;13.90;30.00;;;;;;5033113;28;20517;-67
2021/12/06 09:03:00;;;;;;;10.05;7.53;;;13.90;30.00;;;;;;5033359;28;20217;-67
2021/12/06 09:05:31;;;;;;;10.07;7.22;;;13.90;30.00;;;;;;5035515;28;20213;-67
2021/12/06 09:07:58;;;;;;;9.57;7.05;;;13.90;30.60;;;;;;5037115;28;20206;-67
2021/12/06 09:10:25;;;;;;;7.57;6.70;;;13.90;30.00;;;;;;5037609;28;20461;-67
2021/12/06 09:12:54;;;;;;;9.93;7.07;;;13.90;30.00;;;;;;5044280;28;20204;-67
2021/12/06 09:15:22;;;;;;;7.95;6.20;;;14.00;30.00;;;;;;5056423;28;20256;-68
2021/12/06 09:17:51;;;;;;;7.20;6.50;;;13.90;30.00;;;;;;5056745;28;20205;-67
2021/12/06 09:20:21;;;;;;;6.68;5.88;;;14.00;30.00;;;;;;5056842;28;20263;-67
2021/12/06 09:22:49;;;;;;;7.63;6.32;;;14.00;30.10;;;;;;5056934;28;20220;-68
2021/12/06 09:25:17;;;;;;;6.88;5.68;;;14.00;30.10;;;;;;5056820;28;20200;-67
2021/12/06 09:27:46;;;;;;;6.95;5.80;;;14.00;30.10;;;;;;5056678;28;20205;-67
2021/12/06 09:30:18;;;;;;;6.35;5.57;;;14.00;30.20;;;;;;5056615;28;20491;-67
2021/12/06 09:32:46;;;;;;;5.90;5.30;;;14.00;30.20;;;;;;5056250;28;20205;-68
2021/12/06 09:35:19;;;;;;;7.82;5.10;;;14.00;30.20;;;;;;5056145;28;20217;-68
2021/12/06 09:37:46;;;;;;;6.22;5.30;;;14.00;30.20;;;;;;5051432;28;20197;-68
2021/12/06 09:40:15;;;;;;;6.10;5.47;;;14.00;30.40;;;;;;5054767;28;20507;-68
2021/12/06 09:42:43;;;;;;;6.65;5.10;;;14.00;30.60;;;;;;5051169;28;20194;-68
2021/12/06 09:45:12;;;;;;;5.82;4.43;;;14.00;30.70;;;;;;5055638;28;20550;-68
2021/12/06 09:47:45;;;;;;;5.47;4.50;;;14.10;31.00;;;;;;5056336;28;20197;-68
2021/12/06 09:50:13;;;;;;;6.88;4.60;;;14.10;31.00;;;;;;5055864;28;20201;-68
2021/12/06 09:52:40;;;;;;;5.15;4.63;;;14.10;31.00;;;;;;5056129;28;20208;-69
2021/12/06 09:55:08;;;;;;;5.20;4.55;;;14.10;31.10;;;;;;5054845;28;20216;-69
2021/12/06 09:57:35;;;;;;;5.95;4.38;;;14.10;31.20;;;;;;5055607;28;20212;-69
2021/12/06 10:00:03;;;;;;;5.03;4.40;;;14.10;31.20;;;;;;5052605;28;20200;-68
2021/12/06 10:02:30;;;;;;;5.82;4.32;;;14.10;31.20;;;;;;5055495;28;20237;-68
2021/12/06 10:04:59;;;;;;;4.78;3.90;;;14.10;31.20;;;;;;5055360;28;20209;-67
2021/12/06 10:07:28;;;;;;;4.25;3.85;;;14.10;31.30;;;;;;5053976;28;20197;-67
2021/12/06 10:09:56;;;;;;;4.63;4.22;;;14.10;31.30;;;;;;5055033;28;20209;-67
2021/12/06 10:12:24;;;;;;;5.00;4.05;;;14.10;31.40;;;;;;5049489;28;20220;-68
2021/12/06 10:14:51;;;;;;;4.78;4.10;;;14.20;31.50;;;;;;5055509;28;20584;-68
2021/12/06 10:17:20;;;;;;;9.02;4.65;;;14.20;31.30;;;;;;5055028;28;20228;-68
2021/12/06 10:19:49;;;;;;;6.35;4.45;;;14.20;31.30;;;;;;5054895;28;20233;-68
2021/12/06 10:22:18;;;;;;;7.68;4.22;;;14.20;31.20;;;;;;5055838;28;20208;-67
2021/12/06 10:24:52;;;;;;;8.05;4.78;;;14.20;31.00;;;;;;5055621;28;20212;-67
2021/12/06 10:27:19;;;;;;;7.00;4.03;;;14.20;31.00;;;;;;5053462;28;20283;-68
2021/12/06 10:29:53;;;;;;;8.85;4.22;;;14.20;31.00;;;;;;5043163;28;20519;-67
2021/12/06 10:32:23;;;;;;;11.80;4.70;;;14.20;30.90;;;;;;5055827;28;21025;-67
2021/12/06 10:34:52;;;;;;;7.97;4.47;;;14.20;30.90;;;;;;5054001;28;20591;-67
2021/12/06 10:37:42;;;;;;;10.35;4.28;;;14.20;30.90;;;;;;5053378;28;20247;-67
2021/12/06 10:40:12;;;;;;;11.75;4.45;;;14.20;30.80;;;;;;5052268;28;20208;-67
2021/12/06 10:42:41;;;;;;;8.82;4.28;;;14.30;30.90;;;;;;5052110;28;20502;-68
2021/12/06 10:45:11;;;;;;;7.00;3.90;;;14.30;30.80;;;;;;5053589;28;20221;-68
2021/12/06 10:47:39;;;;;;;9.15;4.10;;;14.30;30.80;;;;;;5052356;28;20213;-68
2021/12/06 10:50:09;;;;;;;7.43;4.07;;;14.30;30.80;;;;;;5052421;28;20220;-67
2021/12/06 10:52:50;;;;;;;6.00;3.75;;;14.30;30.70;;;;;;5053784;28;20220;-67
2021/12/06 10:55:17;;;;;;;6.25;3.90;;;14.30;30.70;;;;;;5053059;28;20302;-67
2021/12/06 10:57:52;;;;;;;8.18;4.15;;;14.30;30.70;;;;;;5051997;28;20216;-68
2021/12/06 11:00:33;;;;;;;8.93;3.80;;;14.30;30.70;;;;;;5053051;28;20468;-67
2021/12/06 11:03:01;;;;;;;6.72;3.65;;;14.30;30.70;;;;;;5046485;28;20205;-67
2021/12/06 11:05:35;;;;;;;6.90;3.70;;;14.30;30.70;;;;;;5052233;28;20204;-68
2021/12/06 11:08:15;;;;;;;6.30;3.78;;;14.30;30.60;;;;;;5052425;28;20208;-67
2021/12/06 11:10:45;;;;;;;7.70;3.90;;;14.30;30.60;;;;;;5052384;28;20611;-67
2021/12/06 11:13:20;;;;;;;6.40;3.63;;;14.30;30.60;;;;;;5050120;28;20595;-68
2021/12/06 11:16:01;;;;;;;6.57;3.70;;;14.30;30.60;;;;;;5048208;28;20710;-68
2021/12/06 11:18:41;;;;;;;4.95;3.78;;;14.30;30.60;;;;;;5052600;28;20220;-67
2021/12/06 11:21:19;;;;;;;5.90;3.90;;;14.30;30.60;;;;;;5052736;28;20236;-67
2021/12/06 11:24:00;;;;;;;6.22;3.92;;;14.30;30.50;;;;;;5053310;28;20215;-67
2021/12/06 11:26:29;;;;;;;5.43;3.92;;;14.30;30.50;;;;;;5051289;28;20205;-68
2021/12/06 11:29:06;;;;;;;6.63;3.75;;;14.30;30.40;;;;;;5048431;28;20208;-67
2021/12/06 11:31:34;;;;;;;4.95;3.40;;;14.30;30.40;;;;;;5045973;28;20204;-67
2021/12/06 11:34:03;;;;;;;4.90;3.80;;;14.30;30.40;;;;;;5052317;28;20588;-67
2021/12/06 11:36:33;;;;;;;5.50;4.03;;;14.40;30.40;;;;;;5051217;28;20225;-67
2021/12/06 11:39:05;;;;;;;7.05;4.35;;;14.40;30.40;;;;;;5050877;28;20212;-67
2021/12/06 11:41:33;;;;;;;7.32;4.13;;;14.40;30.30;;;;;;5051357;28;20222;-68
2021/12/06 11:44:12;;;;;;;5.78;3.70;;;14.30;30.30;;;;;;5050491;28;20227;-67
2021/12/06 11:46:39;;;;;;;53.85;39.30;;;14.40;30.30;;;;;;5051758;28;20213;-67
2021/12/06 11:49:17;;;;;;;105.15;75.85;;;14.40;30.20;;;;;;5052054;28;20484;-68
2021/12/06 11:51:44;;;;;;;71.55;51.42;;;14.30;30.10;;;;;;5051570;28;20357;-67
2021/12/06 11:54:13;;;;;;;56.20;45.00;;;14.40;30.10;;;;;;5051900;28;20213;-67
2021/12/06 11:56:45;;;;;;;57.65;42.85;;;14.40;30.10;;;;;;5052572;28;20513;-67
2021/12/06 11:59:13;;;;;;;55.92;41.33;;;14.30;30.00;;;;;;5051553;28;20584;-68
2021/12/06 12:01:43;;;;;;;51.13;39.53;;;14.40;30.10;;;;;;5051982;28;20201;-67
2021/12/06 12:04:13;;;;;;;47.17;37.17;;;14.40;30.20;;;;;;5048779;28;20232;-67
2021/12/06 12:06:42;;;;;;;46.30;36.42;;;14.40;30.30;;;;;;5057582;28;20205;-67
2021/12/06 12:09:14;;;;;;;45.05;34.75;;;14.30;30.40;;;;;;5053109;28;20205;-68
2021/12/06 12:12:04;;;;;;;47.03;33.70;;;14.40;30.50;;;;;;5053813;28;20205;-67
2021/12/06 12:14:35;;;;;;;45.42;33.60;;;14.40;30.60;;;;;;5053667;28;20204;-68
2021/12/06 12:17:06;;;;;;;43.85;32.70;;;14.40;30.70;;;;;;5052611;28;20232;-67
2021/12/06 12:19:33;;;;;;;39.50;30.63;;;14.40;30.80;;;;;;5053114;28;20243;-68
2021/12/06 12:22:01;;;;;;;40.88;30.33;;;14.40;31.00;;;;;;5053203;28;20708;-68
2021/12/06 12:24:30;;;;;;;43.83;27.92;;;14.40;31.20;;;;;;5042026;28;20212;-68
2021/12/06 12:27:04;;;;;;;35.30;26.02;;;14.40;30.70;;;;;;5033079;28;20237;-68
2021/12/06 12:29:32;;;;;;;36.42;24.17;;;14.40;30.40;;;;;;5032408;28;20245;-68
2021/12/06 12:32:02;;;;;;;36.15;23.67;;;14.50;30.40;;;;;;5033238;28;20209;-68
2021/12/06 12:34:33;;;;;;;32.35;22.15;;;14.50;30.10;;;;;;5033016;28;20220;-68
2021/12/06 12:37:01;;;;;;;32.25;22.13;;;14.50;30.00;;;;;;5033401;28;20225;-68
2021/12/06 12:39:30;;;;;;;32.67;21.10;;;14.40;29.80;;;;;;5035547;28;20219;-68
2021/12/06 12:42:00;;;;;;;30.80;20.05;;;14.50;29.80;;;;;;5037439;28;20237;-68
2021/12/06 12:44:42;;;;;;;25.25;18.17;;;14.40;29.70;;;;;;5037187;28;20210;-68
2021/12/06 12:47:20;;;;;;;26.80;19.15;;;14.40;29.70;;;;;;5037169;28;20202;-68
2021/12/06 12:49:49;;;;;;;26.33;18.98;;;14.40;29.70;;;;;;5037287;28;20228;-68
2021/12/06 12:52:34;;;;;;;22.92;18.13;;;14.40;29.70;;;;;;5051494;28;20207;-68
2021/12/06 12:55:03;;;;;;;21.33;17.13;;;14.40;29.60;;;;;;5057182;28;20219;-68
2021/12/06 12:57:37;;;;;;;34.95;31.60;;;14.40;29.60;;;;;;5057057;28;20225;-68
2021/12/06 13:00:06;;;;;;;29.00;26.00;;;14.40;29.60;;;;;;5056502;28;20219;-68
2021/12/06 13:02:35;;;;;;;26.20;22.90;;;14.40;29.50;;;;;;5055907;28;20335;-68
2021/12/06 13:05:20;;;;;;;23.58;21.08;;;14.40;29.50;;;;;;5056883;28;20224;-68